createdAt,value
2022-11-22T00:02:47.121Z,10.23
2022-11-22T00:05:50.179Z,10.27
2022-11-22T00:08:53.201Z,10.15
2022-11-22T00:11:57.565Z,9.98
2022-11-22T00:15:00.523Z,9.27
2022-11-22T00:18:03.563Z,9.60
2022-11-22T00:21:07.434Z,9.70
2022-11-22T00:24:10.503Z,8.93
2022-11-22T00:27:14.906Z,9.07
2022-11-22T00:30:17.950Z,9.35
2022-11-22T00:33:20.902Z,10.18
2022-11-22T00:36:24.212Z,8.88
2022-11-22T00:39:27.705Z,8.73
2022-11-22T00:42:32.340Z,9.25
2022-11-22T00:45:35.348Z,8.55
2022-11-22T00:48:38.304Z,8.18
2022-11-22T00:51:41.472Z,8.23
2022-11-22T00:54:50.053Z,8.68
2022-11-22T00:57:57.503Z,8.40
2022-11-22T01:01:00.541Z,8.60
2022-11-22T01:04:03.570Z,8.10
2022-11-22T01:07:06.741Z,8.13
2022-11-22T01:10:10.530Z,7.57
2022-11-22T01:13:15.326Z,8.45
2022-11-22T01:16:18.380Z,8.18
2022-11-22T01:19:21.303Z,8.63
2022-11-22T01:22:24.271Z,7.85
2022-11-22T01:25:27.179Z,7.88
2022-11-22T01:28:31.529Z,7.60
2022-11-22T01:31:34.518Z,7.95
2022-11-22T01:34:37.531Z,7.43
2022-11-22T01:37:40.599Z,8.00
2022-11-22T01:40:43.846Z,8.10
2022-11-22T01:43:48.185Z,6.88
2022-11-22T01:46:55.415Z,7.63
2022-11-22T01:50:02.654Z,7.20
2022-11-22T01:53:10.662Z,7.35
2022-11-22T01:56:17.852Z,7.55
2022-11-22T01:59:27.626Z,7.10
2022-11-22T02:02:30.827Z,7.15
2022-11-22T02:05:36.482Z,6.63
2022-11-22T02:08:46.178Z,6.95
2022-11-22T02:11:52.983Z,7.07
2022-11-22T02:14:58.337Z,6.90
2022-11-22T02:18:01.384Z,7.00
2022-11-22T02:21:05.166Z,6.40
2022-11-22T02:24:13.958Z,7.00
2022-11-22T02:27:18.268Z,6.20
2022-11-22T02:30:21.289Z,6.75
2022-11-22T02:33:24.349Z,7.07
2022-11-22T02:36:27.811Z,7.05
2022-11-22T02:39:32.825Z,7.18
2022-11-22T02:42:37.394Z,6.50
2022-11-22T02:45:40.374Z,6.28
2022-11-22T02:48:43.853Z,6.85
2022-11-22T02:51:47.552Z,6.50
2022-11-22T02:54:50.534Z,6.20
2022-11-22T02:57:54.898Z,7.15
2022-11-22T03:00:57.927Z,5.97
2022-11-22T03:04:01.061Z,6.53
2022-11-22T03:07:04.522Z,6.80
2022-11-22T03:10:08.203Z,6.13
2022-11-22T03:13:12.522Z,6.15
2022-11-22T03:16:15.471Z,5.75
2022-11-22T03:19:18.825Z,6.05
2022-11-22T03:22:21.793Z,5.72
2022-11-22T03:25:24.814Z,5.75
2022-11-22T03:28:29.249Z,5.88
2022-11-22T03:31:32.478Z,5.65
2022-11-22T03:34:35.525Z,5.75
2022-11-22T03:37:38.606Z,6.10
2022-11-22T03:40:41.602Z,5.82
2022-11-22T03:43:46.010Z,5.97
2022-11-22T03:46:49.014Z,6.00
2022-11-22T03:49:52.005Z,5.57
2022-11-22T03:52:54.963Z,6.38
2022-11-22T03:55:57.918Z,5.88
2022-11-22T03:59:02.547Z,5.60
2022-11-22T04:02:05.538Z,5.80
2022-11-22T04:05:09.332Z,6.60
2022-11-22T04:08:12.385Z,5.57
2022-11-22T04:11:15.388Z,5.60
2022-11-22T04:14:37.103Z,5.50
2022-11-22T04:17:41.835Z,6.03
2022-11-22T04:21:01.918Z,5.70
2022-11-22T04:24:23.987Z,5.47
2022-11-22T04:27:26.926Z,5.20
2022-11-22T04:30:45.466Z,5.97
2022-11-22T04:33:48.426Z,5.68
2022-11-22T04:36:51.668Z,5.45
2022-11-22T04:39:54.610Z,5.65
2022-11-22T04:43:15.101Z,5.32
2022-11-22T04:46:19.483Z,5.50
2022-11-22T04:49:22.559Z,5.43
2022-11-22T04:52:42.734Z,5.53
2022-11-22T04:55:47.523Z,5.35
2022-11-22T04:58:51.438Z,5.45
2022-11-22T05:01:55.815Z,5.53
2022-11-22T05:04:58.905Z,5.38
2022-11-22T05:08:01.877Z,5.40
2022-11-22T05:11:04.905Z,5.15
2022-11-22T05:14:07.849Z,5.18
2022-11-22T05:17:13.529Z,5.57
2022-11-22T05:20:16.791Z,5.70
2022-11-22T05:23:38.638Z,5.85
2022-11-22T05:26:41.938Z,5.65
2022-11-22T05:29:44.910Z,5.25
2022-11-22T05:32:49.334Z,5.47
2022-11-22T05:35:52.443Z,5.85
2022-11-22T05:38:56.114Z,4.90
2022-11-22T05:41:59.283Z,5.70
2022-11-22T05:45:02.235Z,6.00
2022-11-22T05:48:06.893Z,5.72
2022-11-22T05:51:11.738Z,5.30
2022-11-22T05:54:14.686Z,5.97
2022-11-22T05:57:17.593Z,5.65
2022-11-22T06:00:20.819Z,5.18
2022-11-22T06:03:25.163Z,5.72
2022-11-22T06:06:28.110Z,5.05
2022-11-22T06:09:31.265Z,5.70
2022-11-22T06:12:34.359Z,5.72
2022-11-22T06:15:37.362Z,5.57
2022-11-22T06:18:42.395Z,5.50
2022-11-22T06:21:45.838Z,6.22
2022-11-22T06:24:48.856Z,5.95
2022-11-22T06:27:51.843Z,5.85
2022-11-22T06:30:55.015Z,5.88
2022-11-22T06:34:01.111Z,6.20
2022-11-22T06:37:04.100Z,6.03
2022-11-22T06:40:11.761Z,5.45
2022-11-22T06:43:14.986Z,5.60
2022-11-22T06:46:19.280Z,6.03
2022-11-22T06:49:23.640Z,6.53
2022-11-22T06:52:26.650Z,6.35
2022-11-22T06:55:49.729Z,6.38
2022-11-22T06:58:53.862Z,5.63
2022-11-22T07:02:01.459Z,5.63
2022-11-22T07:05:25.073Z,6.60
2022-11-22T07:08:28.875Z,6.03
2022-11-22T07:11:33.075Z,6.05
2022-11-22T07:14:36.038Z,6.18
2022-11-22T07:17:38.986Z,6.40
2022-11-22T07:20:43.330Z,6.40
2022-11-22T07:23:48.762Z,7.03
2022-11-22T07:26:51.814Z,6.03
2022-11-22T07:29:54.850Z,6.80
2022-11-22T07:32:58.058Z,6.80
2022-11-22T07:36:07.550Z,6.47
2022-11-22T07:39:10.724Z,6.43
2022-11-22T07:42:14.204Z,6.60
2022-11-22T07:45:17.774Z,6.30
2022-11-22T07:48:20.706Z,6.25
2022-11-22T07:51:25.257Z,6.28
2022-11-22T07:54:28.230Z,6.43
2022-11-22T07:57:31.263Z,6.30
2022-11-22T08:00:34.328Z,6.57
2022-11-22T08:03:37.895Z,6.43
2022-11-22T08:06:42.235Z,6.38
2022-11-22T08:09:45.320Z,6.05
2022-11-22T08:12:48.331Z,6.47
2022-11-22T08:15:54.468Z,6.80
2022-11-22T08:18:58.070Z,6.10
2022-11-22T08:22:02.591Z,6.53
2022-11-22T08:25:08.855Z,5.97
2022-11-22T08:28:12.347Z,6.22
2022-11-22T08:31:19.186Z,6.35
2022-11-22T08:34:22.333Z,6.78
2022-11-22T08:37:26.812Z,6.38
2022-11-22T08:40:29.910Z,7.00
2022-11-22T08:43:33.565Z,7.35
2022-11-22T08:46:36.905Z,7.97
2022-11-22T08:49:39.899Z,11.63
2022-11-22T08:52:44.221Z,14.50
2022-11-22T08:55:47.266Z,15.60
2022-11-22T08:58:50.316Z,15.93
2022-11-22T09:01:53.377Z,20.83
2022-11-22T09:04:56.521Z,20.17
2022-11-22T09:11:24.708Z,17.27
2022-11-22T09:14:27.743Z,15.93
2022-11-22T09:17:30.738Z,14.68
2022-11-22T09:20:33.882Z,14.98
2022-11-22T09:23:38.703Z,14.13
2022-11-22T09:26:42.107Z,13.85
2022-11-22T09:29:45.286Z,13.65
2022-11-22T09:32:48.462Z,12.57
2022-11-22T09:35:51.430Z,12.73
2022-11-22T09:38:56.406Z,12.18
2022-11-22T09:42:34.620Z,12.18
2022-11-22T09:46:05.394Z,10.43
2022-11-22T09:49:28.548Z,11.90
2022-11-22T09:52:37.521Z,10.95
2022-11-22T09:55:46.477Z,11.65
2022-11-22T09:58:53.954Z,11.52
2022-11-22T10:02:17.624Z,10.75
2022-11-22T10:05:27.331Z,11.38
2022-11-22T10:08:38.434Z,11.30
2022-11-22T10:11:49.249Z,10.43
2022-11-22T10:14:59.854Z,9.50
2022-11-22T10:18:11.568Z,10.43
2022-11-22T10:21:15.734Z,10.63
2022-11-22T10:24:19.795Z,10.32
2022-11-22T10:27:24.168Z,10.95
2022-11-22T10:30:31.041Z,11.43
2022-11-22T10:33:44.328Z,10.35
2022-11-22T10:36:53.289Z,10.48
2022-11-22T10:40:12.744Z,10.40
2022-11-22T10:43:38.531Z,10.90
2022-11-22T10:46:57.021Z,9.68
2022-11-22T10:50:06.862Z,9.65
2022-11-22T10:53:19.868Z,9.27
2022-11-22T10:56:27.802Z,9.73
2022-11-22T10:59:48.652Z,9.55
2022-11-22T11:03:04.195Z,10.18
2022-11-22T11:10:10.677Z,10.38
2022-11-22T11:13:15.313Z,9.52
2022-11-22T11:16:23.965Z,9.73
2022-11-22T11:19:30.349Z,10.48
2022-11-22T11:23:12.612Z,10.18
2022-11-22T11:26:19.182Z,9.32
2022-11-22T11:29:37.901Z,9.48
2022-11-22T11:32:53.109Z,9.55
2022-11-22T11:36:04.858Z,9.70
2022-11-22T11:39:21.219Z,9.68
2022-11-22T11:42:29.416Z,9.63
2022-11-22T11:45:33.093Z,9.00
2022-11-22T11:48:41.137Z,9.63
2022-11-22T11:51:46.203Z,10.07
2022-11-22T11:54:53.974Z,9.85
2022-11-22T11:57:56.990Z,9.43
2022-11-22T12:01:00.017Z,9.05
2022-11-22T12:04:07.761Z,9.98
2022-11-22T12:07:19.773Z,9.45
2022-11-22T12:10:35.560Z,8.60
2022-11-22T12:14:12.469Z,8.75
2022-11-22T12:17:13.642Z,9.52
2022-11-22T12:20:23.454Z,8.93
2022-11-22T12:23:36.217Z,9.00
2022-11-22T12:26:39.251Z,8.25
2022-11-22T12:29:44.543Z,9.10
2022-11-22T12:32:58.705Z,8.75
2022-11-22T12:36:05.897Z,8.98
2022-11-22T12:39:16.077Z,8.18
2022-11-22T12:42:23.560Z,9.13
2022-11-22T12:45:31.602Z,8.57
2022-11-22T12:48:39.334Z,8.52
2022-11-22T12:51:48.445Z,8.52
2022-11-22T12:55:00.564Z,8.48
2022-11-22T12:58:16.817Z,8.52
2022-11-22T13:01:26.386Z,8.13
2022-11-22T13:04:40.014Z,8.45
2022-11-22T13:07:58.527Z,9.00
2022-11-22T13:11:07.452Z,8.90
2022-11-22T13:14:21.033Z,8.65
2022-11-22T13:17:34.953Z,7.82
2022-11-22T13:20:43.307Z,7.85
2022-11-22T13:24:03.010Z,8.25
2022-11-22T13:27:15.387Z,8.05
2022-11-22T13:30:20.174Z,8.63
2022-11-22T13:33:26.695Z,8.05
2022-11-22T13:36:49.104Z,8.18
2022-11-22T13:39:54.220Z,7.35
2022-11-22T13:43:48.411Z,8.40
2022-11-22T13:47:00.429Z,7.63
2022-11-22T13:50:03.791Z,7.63
2022-11-22T13:53:22.950Z,7.50
2022-11-22T13:56:59.636Z,7.85
2022-11-22T14:00:47.437Z,7.90
2022-11-22T14:03:50.531Z,7.55
2022-11-22T14:06:57.751Z,8.15
2022-11-22T14:10:02.823Z,7.78
2022-11-22T14:13:29.172Z,8.15
2022-11-22T14:16:48.834Z,7.13
2022-11-22T14:20:03.025Z,8.07
2022-11-22T14:23:15.710Z,8.15
2022-11-22T14:26:29.467Z,8.10
2022-11-22T14:30:02.924Z,7.95
2022-11-22T14:33:07.662Z,8.45
2022-11-22T14:36:17.581Z,8.05
2022-11-22T14:39:53.630Z,8.30
2022-11-22T14:42:59.854Z,8.35
2022-11-22T14:46:37.375Z,8.15
2022-11-22T14:49:43.383Z,7.57
2022-11-22T14:52:48.234Z,8.07
2022-11-22T14:55:53.529Z,7.95
2022-11-22T14:59:02.694Z,7.80
2022-11-22T15:02:30.206Z,8.10
2022-11-22T15:09:18.219Z,8.07
2022-11-22T15:09:48.810Z,7.90
2022-11-22T15:13:10.765Z,7.75
2022-11-22T15:58:01.875Z,9.38
2022-11-22T16:01:19.557Z,9.30
2022-11-22T16:04:27.735Z,9.50
2022-11-22T16:07:36.365Z,9.63
2022-11-22T16:10:44.783Z,10.38
2022-11-22T16:13:47.971Z,8.93
2022-11-22T16:16:50.944Z,9.90
2022-11-22T16:19:54.457Z,9.73
2022-11-22T16:23:19.993Z,10.35
2022-11-22T16:26:29.421Z,9.55
2022-11-22T16:29:34.246Z,9.93
2022-11-22T16:32:37.476Z,9.60
2022-11-22T16:35:40.700Z,9.70
2022-11-22T16:38:44.419Z,9.18
2022-11-22T16:41:48.853Z,9.82
2022-11-22T16:44:52.317Z,10.18
2022-11-22T16:48:16.643Z,10.00
2022-11-22T16:51:23.680Z,9.52
2022-11-22T16:54:28.561Z,9.57
2022-11-22T16:57:32.962Z,8.85
2022-11-22T17:00:37.764Z,10.18
2022-11-22T17:03:41.370Z,9.55
2022-11-22T17:06:44.784Z,8.93
2022-11-22T17:09:47.784Z,9.60
2022-11-22T17:12:52.177Z,9.52
2022-11-22T17:15:57.240Z,9.50
2022-11-22T17:19:00.239Z,9.32
2022-11-22T17:22:06.788Z,9.75
2022-11-22T17:25:13.446Z,9.30
2022-11-22T17:28:17.789Z,9.25
2022-11-22T17:31:22.113Z,9.23
2022-11-22T17:34:25.152Z,9.52
2022-11-22T17:37:29.543Z,9.30
2022-11-22T17:40:32.686Z,9.57
2022-11-22T17:43:39.658Z,9.43
2022-11-22T17:46:44.032Z,8.98
2022-11-22T17:49:46.990Z,8.93
2022-11-22T17:52:49.942Z,8.95
2022-11-22T17:56:09.984Z,9.05
2022-11-22T17:59:15.150Z,8.95
2022-11-22T18:02:18.090Z,8.82
2022-11-22T18:05:21.049Z,9.23
2022-11-22T18:08:24.139Z,9.07
2022-11-22T18:11:27.200Z,9.55
2022-11-22T18:14:31.729Z,7.95
2022-11-22T18:17:35.494Z,8.60
2022-11-22T18:20:38.802Z,8.75
2022-11-22T18:23:41.871Z,8.63
2022-11-22T18:26:45.007Z,9.10
2022-11-22T18:29:49.260Z,8.32
2022-11-22T18:32:52.215Z,8.05
2022-11-22T18:35:59.806Z,8.27
2022-11-22T18:39:02.836Z,8.07
2022-11-22T18:42:07.131Z,8.27
2022-11-22T18:45:12.130Z,8.77
2022-11-22T18:48:15.051Z,7.72
2022-11-22T18:51:18.396Z,8.70
2022-11-22T18:54:22.109Z,8.90
2022-11-22T18:57:26.437Z,8.90
2022-11-22T19:00:30.819Z,8.45
2022-11-22T19:03:33.810Z,8.88
2022-11-22T19:06:36.838Z,9.05
2022-11-22T19:09:39.809Z,8.38
2022-11-22T19:12:43.564Z,9.18
2022-11-22T19:15:47.956Z,8.65
2022-11-22T19:18:51.677Z,9.68
2022-11-22T19:21:54.705Z,9.63
2022-11-22T19:24:57.705Z,9.27
2022-11-22T19:28:00.660Z,9.15
2022-11-22T19:31:07.728Z,9.05
2022-11-22T19:34:10.817Z,9.45
2022-11-22T19:37:13.852Z,9.27
2022-11-22T19:40:17.059Z,8.95
2022-11-22T19:43:20.363Z,9.07
2022-11-22T19:46:25.125Z,8.50
2022-11-22T19:49:28.382Z,9.50
2022-11-22T19:52:32.352Z,9.15
2022-11-22T19:55:35.992Z,9.07
2022-11-22T19:58:38.929Z,8.85
2022-11-22T20:01:43.634Z,8.93
2022-11-22T20:04:46.664Z,9.38
2022-11-22T20:07:50.001Z,8.25
2022-11-22T20:10:53.039Z,8.93
2022-11-22T20:13:56.074Z,8.93
2022-11-22T20:17:00.482Z,8.30
2022-11-22T20:20:04.527Z,8.50
2022-11-22T20:23:07.546Z,8.88
2022-11-22T20:26:15.502Z,8.75
2022-11-22T20:29:21.403Z,8.32
2022-11-22T20:32:25.773Z,8.40
2022-11-22T20:35:28.693Z,9.32
2022-11-22T20:38:33.763Z,7.85
2022-11-22T20:41:37.622Z,9.23
2022-11-22T20:44:40.657Z,8.35
2022-11-22T20:47:45.073Z,8.30
2022-11-22T20:50:51.379Z,8.70
2022-11-22T20:53:54.374Z,8.25
2022-11-22T20:56:57.344Z,8.30
2022-11-22T21:00:00.259Z,8.10
2022-11-22T21:03:04.831Z,8.75
2022-11-22T21:06:08.409Z,8.43
2022-11-22T21:09:11.772Z,7.65
2022-11-22T21:12:14.732Z,8.55
2022-11-22T21:15:18.995Z,8.38
2022-11-22T21:18:25.629Z,7.68
2022-11-22T21:21:29.593Z,7.25
2022-11-22T21:24:32.749Z,7.65
2022-11-22T21:27:36.146Z,8.35
2022-11-22T21:30:39.228Z,8.07
2022-11-22T21:33:43.714Z,8.25
2022-11-22T21:36:46.710Z,8.25
2022-11-22T21:39:49.719Z,7.80
2022-11-22T21:42:52.734Z,7.30
2022-11-22T21:45:56.150Z,7.85
2022-11-22T21:49:00.504Z,8.63
2022-11-22T21:52:03.535Z,7.45
2022-11-22T21:55:07.542Z,7.70
2022-11-22T21:58:10.574Z,7.50
2022-11-22T22:01:14.395Z,7.80
2022-11-22T22:04:19.079Z,7.90
2022-11-22T22:07:45.123Z,8.02
2022-11-22T22:10:48.502Z,7.50
2022-11-22T22:13:53.351Z,7.85
2022-11-22T22:16:56.339Z,7.50
2022-11-22T22:20:00.794Z,7.75
2022-11-22T22:23:03.920Z,7.30
2022-11-22T22:26:09.031Z,8.00
2022-11-22T22:29:12.102Z,8.00
2022-11-22T22:32:15.121Z,7.65
2022-11-22T22:35:19.530Z,7.70
2022-11-22T22:38:22.482Z,7.45
2022-11-22T22:41:25.531Z,7.88
2022-11-22T22:44:28.862Z,7.50
2022-11-22T22:47:32.698Z,8.15
2022-11-22T22:50:37.066Z,7.95
2022-11-22T22:53:40.378Z,7.40
2022-11-22T22:56:43.730Z,8.35
2022-11-22T22:59:46.734Z,7.28
2022-11-22T23:02:49.695Z,7.95
2022-11-22T23:05:54.034Z,7.55
2022-11-22T23:08:57.546Z,6.72
2022-11-22T23:12:12.435Z,7.72
2022-11-22T23:15:15.623Z,7.20
2022-11-22T23:18:18.622Z,7.43
2022-11-22T23:21:22.938Z,7.63
2022-11-22T23:24:26.084Z,8.05
2022-11-22T23:27:29.099Z,7.30
2022-11-22T23:30:32.082Z,7.10
2022-11-22T23:33:35.434Z,7.00
2022-11-22T23:36:41.228Z,6.97
2022-11-22T23:39:44.363Z,7.15
2022-11-22T23:42:47.349Z,7.65
2022-11-22T23:45:50.243Z,7.85
2022-11-22T23:48:55.429Z,6.93
2022-11-22T23:51:59.740Z,8.52
2022-11-22T23:55:02.677Z,7.43
2022-11-22T23:58:05.797Z,7.32
